createdAt,value
2019-04-16T00:02:21.766Z,12.70
2019-04-16T00:05:04.760Z,13.70
2019-04-16T00:07:32.892Z,13.60
2019-04-16T00:10:03.689Z,14.20
2019-04-16T00:12:31.906Z,14.33
2019-04-16T00:14:59.756Z,13.83
2019-04-16T00:17:25.942Z,14.63
2019-04-16T00:19:52.087Z,13.37
2019-04-16T00:22:20.092Z,13.60
2019-04-16T00:24:47.015Z,13.07
2019-04-16T00:27:13.134Z,13.30
2019-04-16T00:29:39.879Z,12.60
2019-04-16T00:32:09.626Z,12.77
2019-04-16T00:34:35.869Z,13.03
2019-04-16T00:37:02.207Z,12.93
2019-04-16T00:39:28.523Z,13.13
2019-04-16T00:41:54.794Z,13.53
2019-04-16T00:44:21.011Z,13.77
2019-04-16T00:46:47.317Z,13.10
2019-04-16T00:49:13.557Z,12.93
2019-04-16T00:51:39.723Z,13.13
2019-04-16T00:54:09.707Z,12.83
2019-04-16T00:56:34.073Z,11.97
2019-04-16T00:59:00.176Z,12.20
2019-04-16T01:01:26.531Z,12.37
2019-04-16T01:03:52.730Z,12.73
2019-04-16T01:06:18.981Z,12.87
2019-04-16T01:08:54.448Z,13.57
2019-04-16T01:11:13.206Z,12.10
2019-04-16T01:13:39.735Z,12.80
2019-04-16T01:16:05.940Z,12.40
2019-04-16T01:18:33.377Z,12.30
2019-04-16T01:20:59.518Z,12.27
2019-04-16T01:23:25.825Z,12.00
2019-04-16T01:25:55.310Z,12.07
2019-04-16T01:28:29.363Z,12.60
2019-04-16T01:30:57.874Z,12.90
2019-04-16T01:33:38.136Z,12.70
2019-04-16T01:36:22.810Z,12.97
2019-04-16T01:38:51.272Z,13.07
2019-04-16T01:41:21.711Z,12.33
2019-04-16T01:43:46.749Z,12.50
2019-04-16T01:46:13.120Z,12.90
2019-04-16T01:48:39.840Z,11.90
2019-04-16T01:51:06.171Z,11.80
2019-04-16T01:53:32.358Z,12.57
2019-04-16T01:55:58.631Z,12.10
2019-04-16T01:58:24.747Z,12.13
2019-04-16T02:00:50.891Z,11.57
2019-04-16T02:03:18.528Z,11.93
2019-04-16T02:05:45.108Z,11.70
2019-04-16T02:08:11.430Z,11.63
2019-04-16T02:10:38.366Z,10.77
2019-04-16T02:13:05.475Z,11.30
2019-04-16T02:15:31.585Z,11.73
2019-04-16T02:17:58.784Z,11.70
2019-04-16T02:20:25.801Z,12.00
2019-04-16T02:22:52.212Z,10.77
2019-04-16T02:25:20.187Z,11.00
2019-04-16T02:27:46.570Z,10.67
2019-04-16T02:30:13.076Z,11.47
2019-04-16T02:32:39.227Z,11.40
2019-04-16T02:35:05.554Z,10.97
2019-04-16T02:37:35.421Z,10.97
2019-04-16T02:39:59.759Z,11.10
2019-04-16T02:42:30.661Z,10.43
2019-04-16T02:44:54.152Z,10.50
2019-04-16T02:47:20.445Z,10.53
2019-04-16T02:49:46.716Z,10.50
2019-04-16T02:52:16.481Z,10.77
2019-04-16T02:54:44.736Z,10.47
2019-04-16T02:57:13.085Z,11.23
2019-04-16T02:59:45.770Z,10.67
2019-04-16T03:02:22.681Z,10.90
2019-04-16T03:04:59.209Z,10.73
2019-04-16T03:07:25.597Z,11.10
2019-04-16T03:10:01.173Z,10.40
2019-04-16T03:12:20.868Z,10.30
2019-04-16T03:14:47.957Z,10.63
2019-04-16T03:17:24.794Z,10.60
2019-04-16T03:19:52.895Z,10.67
2019-04-16T03:22:19.145Z,10.30
2019-04-16T03:24:45.240Z,10.63
2019-04-16T03:27:11.447Z,10.60
2019-04-16T03:29:37.824Z,9.93
2019-04-16T03:32:04.756Z,10.57
2019-04-16T03:34:32.191Z,10.27
2019-04-16T03:37:01.782Z,10.50
2019-04-16T03:39:26.630Z,9.87
2019-04-16T03:41:56.005Z,10.30
2019-04-16T03:44:21.099Z,10.33
2019-04-16T03:46:47.704Z,10.73
2019-04-16T03:49:14.030Z,10.63
2019-04-16T03:51:40.238Z,10.33
2019-04-16T03:54:06.313Z,10.50
2019-04-16T03:56:32.637Z,11.30
2019-04-16T03:58:58.760Z,11.60
2019-04-16T04:01:24.962Z,11.23
2019-04-16T04:03:51.181Z,11.40
2019-04-16T04:06:17.395Z,11.70
2019-04-16T04:08:47.990Z,12.27
2019-04-16T04:11:11.657Z,11.03
2019-04-16T04:13:37.839Z,11.53
2019-04-16T04:16:04.039Z,11.93
2019-04-16T04:18:30.277Z,11.57
2019-04-16T04:20:57.492Z,11.77
2019-04-16T04:23:25.490Z,11.23
2019-04-16T04:25:51.669Z,12.03
2019-04-16T04:28:19.675Z,11.47
2019-04-16T04:30:48.623Z,11.63
2019-04-16T04:33:16.009Z,11.33
2019-04-16T04:35:42.184Z,11.70
2019-04-16T04:38:08.344Z,11.10
2019-04-16T04:40:44.336Z,11.77
2019-04-16T04:43:02.687Z,12.03
2019-04-16T04:45:29.018Z,12.53
2019-04-16T04:47:55.142Z,12.53
2019-04-16T04:50:21.298Z,12.57
2019-04-16T04:52:47.593Z,12.17
2019-04-16T04:55:13.910Z,12.60
2019-04-16T04:57:40.266Z,12.53
2019-04-16T05:00:08.507Z,11.97
2019-04-16T05:02:35.305Z,11.80
2019-04-16T05:05:13.154Z,12.50
2019-04-16T05:07:39.498Z,13.30
2019-04-16T05:10:07.542Z,11.70
2019-04-16T05:12:34.353Z,11.90
2019-04-16T05:15:03.728Z,12.07
2019-04-16T05:17:29.709Z,12.07
2019-04-16T05:19:55.903Z,12.33
2019-04-16T05:22:22.353Z,12.43
2019-04-16T05:24:48.640Z,12.03
2019-04-16T05:27:14.882Z,12.23
2019-04-16T05:29:41.173Z,12.50
2019-04-16T05:32:07.416Z,12.27
2019-04-16T05:34:34.562Z,12.37
2019-04-16T05:37:01.745Z,12.67
2019-04-16T05:39:28.562Z,11.47
2019-04-16T05:41:55.553Z,12.00
2019-04-16T05:44:21.647Z,12.20
2019-04-16T05:46:47.754Z,12.20
2019-04-16T05:49:13.858Z,12.47
2019-04-16T05:51:40.170Z,12.77
2019-04-16T05:54:12.227Z,12.80
2019-04-16T05:56:58.925Z,12.83
2019-04-16T05:59:25.031Z,13.10
2019-04-16T06:01:53.166Z,12.87
2019-04-16T06:04:24.250Z,13.20
2019-04-16T06:06:47.437Z,13.17
2019-04-16T06:09:13.633Z,13.57
2019-04-16T06:11:39.856Z,14.43
2019-04-16T06:14:08.111Z,14.13
2019-04-16T06:16:42.059Z,13.93
2019-04-16T06:19:22.174Z,14.57
2019-04-16T06:22:08.619Z,14.93
2019-04-16T06:24:53.469Z,14.00
2019-04-16T06:27:36.776Z,15.60
2019-04-16T06:30:22.599Z,14.93
2019-04-16T06:32:54.732Z,14.50
2019-04-16T06:35:43.509Z,16.53
2019-04-16T06:38:15.685Z,14.33
2019-04-16T06:40:49.867Z,13.37
2019-04-16T06:43:25.183Z,14.57
2019-04-16T06:46:08.550Z,13.30
2019-04-16T06:48:37.035Z,13.90
2019-04-16T06:51:22.054Z,13.07
2019-04-16T06:53:56.882Z,12.80
2019-04-16T06:56:37.380Z,13.20
2019-04-16T06:59:10.548Z,12.87
2019-04-16T07:01:41.954Z,14.50
2019-04-16T07:04:17.696Z,14.13
2019-04-16T07:07:07.863Z,14.17
2019-04-16T07:09:41.403Z,13.87
2019-04-16T07:12:02.658Z,13.63
2019-04-16T07:14:29.103Z,13.73
2019-04-16T07:16:59.760Z,14.93
2019-04-16T07:19:23.336Z,14.00
2019-04-16T07:21:49.981Z,14.80
2019-04-16T07:24:16.387Z,13.20
2019-04-16T07:26:46.436Z,13.00
2019-04-16T07:29:21.473Z,11.80
2019-04-16T07:32:04.653Z,11.97
2019-04-16T07:34:35.982Z,13.00
2019-04-16T07:37:22.775Z,11.90
2019-04-16T07:40:10.248Z,12.57
2019-04-16T07:42:51.275Z,13.30
2019-04-16T07:45:18.016Z,13.37
2019-04-16T07:47:52.513Z,12.87
2019-04-16T07:50:20.564Z,11.83
2019-04-16T07:53:00.573Z,11.33
2019-04-16T07:55:31.608Z,11.27
2019-04-16T07:57:57.893Z,11.57
2019-04-16T08:00:24.202Z,11.20
2019-04-16T08:02:50.723Z,11.30
2019-04-16T08:05:19.754Z,10.83
2019-04-16T08:07:46.017Z,11.43
2019-04-16T08:10:12.510Z,11.33
2019-04-16T08:12:42.256Z,11.30
2019-04-16T08:15:14.425Z,11.43
2019-04-16T08:17:37.248Z,11.50
2019-04-16T08:20:03.800Z,11.80
2019-04-16T08:22:30.265Z,11.43
2019-04-16T08:25:02.499Z,11.10
2019-04-16T08:27:26.416Z,11.30
2019-04-16T08:29:52.633Z,11.60
2019-04-16T08:32:18.876Z,12.07
2019-04-16T08:34:45.201Z,12.70
2019-04-16T08:37:11.289Z,12.03
2019-04-16T08:39:39.817Z,11.60
2019-04-16T08:42:06.070Z,11.80
2019-04-16T08:44:35.210Z,11.97
2019-04-16T08:47:00.427Z,12.20
2019-04-16T08:49:26.666Z,12.40
2019-04-16T08:51:52.984Z,12.27
2019-04-16T08:54:19.300Z,12.57
2019-04-16T08:56:45.695Z,12.40
2019-04-16T08:59:11.982Z,12.47
2019-04-16T09:01:38.519Z,12.83
2019-04-16T09:04:04.684Z,12.07
2019-04-16T09:06:30.851Z,11.63
2019-04-16T09:09:12.502Z,12.23
2019-04-16T09:11:35.398Z,11.97
2019-04-16T09:14:02.643Z,12.60
2019-04-16T09:16:30.303Z,12.30
2019-04-16T09:18:58.409Z,12.73
2019-04-16T09:21:27.802Z,12.53
2019-04-16T09:24:11.140Z,13.63
2019-04-16T09:26:43.782Z,13.40
2019-04-16T09:29:30.296Z,12.83
2019-04-16T09:32:04.397Z,12.93
2019-04-16T09:34:39.452Z,12.47
2019-04-16T09:37:11.177Z,13.70
2019-04-16T09:39:55.772Z,11.73
2019-04-16T09:42:23.188Z,13.90
2019-04-16T09:44:49.324Z,12.70
2019-04-16T09:47:15.758Z,12.97
2019-04-16T09:49:43.079Z,13.20
2019-04-16T09:52:09.212Z,13.50
2019-04-16T09:54:35.511Z,12.70
2019-04-16T09:57:01.855Z,12.70
2019-04-16T09:59:29.850Z,13.57
2019-04-16T10:02:00.873Z,13.20
2019-04-16T10:04:26.995Z,13.00
2019-04-16T10:06:53.332Z,13.70
2019-04-16T10:09:21.711Z,13.50
2019-04-16T10:11:47.696Z,14.20
2019-04-16T10:14:13.812Z,13.73
2019-04-16T10:16:40.138Z,12.93
2019-04-16T10:19:08.376Z,13.10
2019-04-16T10:21:34.483Z,13.07
2019-04-16T10:24:14.708Z,13.67
2019-04-16T10:26:41.006Z,13.20
2019-04-16T10:29:09.247Z,14.07
2019-04-16T10:31:35.578Z,13.83
2019-04-16T10:34:01.694Z,13.50
2019-04-16T10:36:28.072Z,13.40
2019-04-16T10:38:59.125Z,13.83
2019-04-16T10:41:36.395Z,14.13
2019-04-16T10:44:10.534Z,13.43
2019-04-16T10:46:55.670Z,13.33
2019-04-16T10:49:23.818Z,13.37
2019-04-16T10:51:57.837Z,14.00
2019-04-16T10:54:33.763Z,13.97
2019-04-16T10:57:05.389Z,14.30
2019-04-16T10:59:40.714Z,15.13
2019-04-16T11:02:21.595Z,14.53
2019-04-16T11:05:06.236Z,14.47
2019-04-16T11:07:34.502Z,13.50
2019-04-16T11:10:00.650Z,14.23
2019-04-16T11:12:26.871Z,13.95
2019-04-16T11:14:53.219Z,14.00
2019-04-16T11:17:21.424Z,14.67
2019-04-16T11:19:52.596Z,14.10
2019-04-16T11:22:15.754Z,14.27
2019-04-16T11:24:41.888Z,14.87
2019-04-16T11:27:08.192Z,14.07
2019-04-16T11:29:34.392Z,14.23
2019-04-16T11:32:02.985Z,14.43
2019-04-16T11:34:29.426Z,14.60
2019-04-16T11:36:58.363Z,14.98
2019-04-16T11:39:23.892Z,15.03
2019-04-16T11:41:50.133Z,14.87
2019-04-16T11:44:17.320Z,15.30
2019-04-16T11:46:43.898Z,14.43
2019-04-16T11:49:10.611Z,15.10
2019-04-16T11:51:36.823Z,14.80
2019-04-16T11:54:03.165Z,14.30
2019-04-16T11:56:29.593Z,13.90
2019-04-16T11:58:57.553Z,16.03
2019-04-16T12:01:42.613Z,15.50
2019-04-16T12:04:28.914Z,15.40
2019-04-16T12:07:05.579Z,15.05
2019-04-16T12:09:48.283Z,14.78
2019-04-16T12:12:19.339Z,16.27
2019-04-16T12:14:47.505Z,15.38
2019-04-16T12:17:15.828Z,15.83
2019-04-16T12:20:00.430Z,16.37
2019-04-16T12:22:40.848Z,15.68
2019-04-16T12:25:29.294Z,16.65
2019-04-16T12:28:12.297Z,16.87
2019-04-16T12:30:47.927Z,17.17
2019-04-16T12:33:16.097Z,16.60
2019-04-16T12:35:45.507Z,16.67
2019-04-16T12:38:18.169Z,15.63
2019-04-16T12:41:01.075Z,16.95
2019-04-16T12:43:35.273Z,16.87
2019-04-16T12:46:03.664Z,16.93
2019-04-16T12:48:34.707Z,16.52
2019-04-16T12:51:08.966Z,17.73
2019-04-16T12:53:54.252Z,18.35
2019-04-16T12:56:25.141Z,17.87
2019-04-16T12:59:05.516Z,18.98
2019-04-16T13:01:37.201Z,19.30
2019-04-16T13:04:05.601Z,19.57
2019-04-16T13:06:34.923Z,18.87
2019-04-16T13:09:15.210Z,19.00
2019-04-16T13:11:43.361Z,19.27
2019-04-16T13:14:17.163Z,18.50
2019-04-16T13:16:57.183Z,20.15
2019-04-16T13:19:37.425Z,19.70
2019-04-16T13:22:05.557Z,19.05
2019-04-16T13:24:39.645Z,18.82
2019-04-16T13:27:10.708Z,18.32
2019-04-16T13:29:37.091Z,19.23
2019-04-16T13:32:03.361Z,20.27
2019-04-16T13:34:29.679Z,20.37
2019-04-16T13:36:59.313Z,19.98
2019-04-16T13:39:28.562Z,20.23
2019-04-16T13:41:54.848Z,19.87
2019-04-16T13:44:22.966Z,19.37
2019-04-16T13:46:49.174Z,19.20
2019-04-16T13:49:19.966Z,20.08
2019-04-16T13:51:47.838Z,20.55
2019-04-16T13:54:28.520Z,20.60
2019-04-16T13:56:58.182Z,19.62
2019-04-16T13:59:30.149Z,19.98
2019-04-16T14:02:05.294Z,21.17
2019-04-16T14:04:31.939Z,20.57
2019-04-16T14:06:58.425Z,20.30
2019-04-16T14:09:24.662Z,20.72
2019-04-16T14:11:51.978Z,20.00
2019-04-16T14:14:20.725Z,19.90
2019-04-16T14:16:46.556Z,19.48
2019-04-16T14:19:12.864Z,21.17
2019-04-16T14:21:39.076Z,19.57
2019-04-16T14:24:05.303Z,20.75
2019-04-16T14:26:31.805Z,20.32
2019-04-16T14:28:58.253Z,20.23
2019-04-16T14:31:26.097Z,20.10
2019-04-16T14:34:03.099Z,20.90
2019-04-16T14:36:29.538Z,20.50
2019-04-16T14:39:15.938Z,20.65
2019-04-16T14:41:42.378Z,19.90
2019-04-16T14:44:16.204Z,21.40
2019-04-16T14:46:42.434Z,21.48
2019-04-16T14:49:08.826Z,20.92
2019-04-16T14:51:35.115Z,21.17
2019-04-16T14:54:03.559Z,20.45
2019-04-16T14:56:37.591Z,20.40
2019-04-16T14:59:08.956Z,20.20
2019-04-16T15:01:37.199Z,20.75
2019-04-16T15:04:05.510Z,21.00
2019-04-16T15:06:52.738Z,20.55
2019-04-16T15:09:20.405Z,21.07
2019-04-16T15:11:48.745Z,20.30
2019-04-16T15:14:16.925Z,19.20
2019-04-16T15:16:45.219Z,19.73
2019-04-16T15:19:28.626Z,20.43
2019-04-16T15:22:14.531Z,20.02
2019-04-16T15:24:45.972Z,19.47
2019-04-16T15:27:16.817Z,19.00
2019-04-16T15:30:00.567Z,20.45
2019-04-16T15:32:40.902Z,18.90
2019-04-16T15:35:14.151Z,19.02
2019-04-16T15:37:57.861Z,19.60
2019-04-16T15:40:39.331Z,18.57
2019-04-16T15:43:21.545Z,19.40
2019-04-16T15:45:49.790Z,18.77
2019-04-16T15:48:36.099Z,17.97
2019-04-16T15:51:19.374Z,19.65
2019-04-16T15:53:51.615Z,18.75
2019-04-16T15:56:25.392Z,18.53
2019-04-16T15:59:05.651Z,19.23
2019-04-16T16:01:49.024Z,18.17
2019-04-16T16:04:36.413Z,17.30
2019-04-16T16:07:07.919Z,18.50
2019-04-16T16:09:34.522Z,18.75
2019-04-16T16:12:11.814Z,18.15
2019-04-16T16:14:38.861Z,18.37
2019-04-16T16:17:05.292Z,18.48
2019-04-16T16:19:31.690Z,17.87
2019-04-16T16:21:58.282Z,17.35
2019-04-16T16:24:24.781Z,18.45
2019-04-16T16:26:51.101Z,17.73
2019-04-16T16:29:17.286Z,17.30
2019-04-16T16:31:43.401Z,18.30
2019-04-16T16:34:09.684Z,18.70
2019-04-16T16:36:40.485Z,19.03
2019-04-16T16:39:06.063Z,19.17
2019-04-16T16:41:33.494Z,19.37
2019-04-16T16:43:59.598Z,17.53
2019-04-16T16:46:30.611Z,17.97
2019-04-16T16:48:57.071Z,16.93
2019-04-16T16:51:23.386Z,18.40
2019-04-16T16:53:54.569Z,17.95
2019-04-16T16:56:39.576Z,17.40
2019-04-16T16:59:19.879Z,17.77
2019-04-16T17:01:48.072Z,16.90
2019-04-16T17:04:16.236Z,17.87
2019-04-16T17:06:42.529Z,17.53
2019-04-16T17:09:10.636Z,17.37
2019-04-16T17:11:37.164Z,16.40
2019-04-16T17:14:05.252Z,16.63
2019-04-16T17:16:31.463Z,16.03
2019-04-16T17:18:57.617Z,17.23
2019-04-16T17:21:24.956Z,17.10
2019-04-16T17:23:51.261Z,16.67
2019-04-16T17:26:17.732Z,16.77
2019-04-16T17:28:44.943Z,17.07
2019-04-16T17:31:11.379Z,16.13
2019-04-16T17:33:38.051Z,16.60
2019-04-16T17:36:05.204Z,16.97
2019-04-16T17:38:33.927Z,17.70
2019-04-16T17:41:01.627Z,17.33
2019-04-16T17:43:38.965Z,16.43
2019-04-16T17:46:07.230Z,16.67
2019-04-16T17:48:35.477Z,18.13
2019-04-16T17:51:20.589Z,16.57
2019-04-16T17:53:48.898Z,17.27
2019-04-16T17:56:26.076Z,17.57
2019-04-16T17:58:57.408Z,17.47
2019-04-16T18:01:25.643Z,18.00
2019-04-16T18:03:53.639Z,18.03
2019-04-16T18:06:25.514Z,17.17
2019-04-16T18:09:11.834Z,17.93
2019-04-16T18:11:44.755Z,17.57
2019-04-16T18:14:22.624Z,17.17
2019-04-16T18:16:56.782Z,17.70
2019-04-16T18:19:41.611Z,17.63
2019-04-16T18:22:15.608Z,18.17
2019-04-16T18:24:42.774Z,17.07
2019-04-16T18:27:25.591Z,18.13
2019-04-16T18:30:10.011Z,17.07
2019-04-16T18:32:41.090Z,17.50
2019-04-16T18:35:24.484Z,17.57
2019-04-16T18:38:01.526Z,18.13
2019-04-16T18:40:32.272Z,17.50
2019-04-16T18:43:03.260Z,16.50
2019-04-16T18:45:48.082Z,18.23
2019-04-16T18:48:19.120Z,18.07
2019-04-16T18:50:45.494Z,17.67
2019-04-16T18:53:11.961Z,18.40
2019-04-16T18:55:38.350Z,17.63
2019-04-16T18:58:05.060Z,18.60
2019-04-16T19:00:42.176Z,18.50
2019-04-16T19:03:08.900Z,17.67
2019-04-16T19:05:37.085Z,19.00
2019-04-16T19:08:05.533Z,19.03
2019-04-16T19:10:31.666Z,18.17
2019-04-16T19:12:57.965Z,19.17
2019-04-16T19:15:24.368Z,19.37
2019-04-16T19:17:50.700Z,19.07
2019-04-16T19:20:18.311Z,19.53
2019-04-16T19:22:46.527Z,18.93
2019-04-16T19:25:12.839Z,18.73
2019-04-16T19:27:39.065Z,18.13
2019-04-16T19:30:06.626Z,20.10
2019-04-16T19:32:35.033Z,19.70
2019-04-16T19:35:09.893Z,19.53
2019-04-16T19:37:33.134Z,19.87
2019-04-16T19:39:57.951Z,19.50
2019-04-16T19:42:28.307Z,20.83
2019-04-16T19:44:52.727Z,20.60
2019-04-16T19:47:23.334Z,20.30
2019-04-16T19:49:48.795Z,22.37
2019-04-16T19:52:17.292Z,21.50
2019-04-16T19:54:43.803Z,21.10
2019-04-16T19:57:10.384Z,21.90
2019-04-16T19:59:36.659Z,21.33
2019-04-16T20:02:03.896Z,22.20
2019-04-16T20:04:30.522Z,21.40
2019-04-16T20:07:00.219Z,21.30
2019-04-16T20:09:25.196Z,21.20
2019-04-16T20:11:54.701Z,21.43
2019-04-16T20:14:20.088Z,21.83
2019-04-16T20:16:46.486Z,22.20
2019-04-16T20:19:13.000Z,21.27
2019-04-16T20:21:39.447Z,21.63
2019-04-16T20:24:05.802Z,21.50
2019-04-16T20:26:33.479Z,22.37
2019-04-16T20:28:59.903Z,21.67
2019-04-16T20:31:26.077Z,22.03
2019-04-16T20:33:52.273Z,21.23
2019-04-16T20:36:22.524Z,21.37
2019-04-16T20:38:46.628Z,20.67
2019-04-16T20:41:18.060Z,21.63
2019-04-16T20:43:41.321Z,21.60
2019-04-16T20:46:07.511Z,22.30
2019-04-16T20:48:33.983Z,21.53
2019-04-16T20:51:00.344Z,20.77
2019-04-16T20:53:26.699Z,21.93
2019-04-16T20:55:53.030Z,21.43
2019-04-16T20:58:19.383Z,21.93
2019-04-16T21:00:47.539Z,21.50
2019-04-16T21:03:21.929Z,22.43
2019-04-16T21:05:57.065Z,21.77
2019-04-16T21:08:10.468Z,21.80
2019-04-16T21:10:36.576Z,21.37
2019-04-16T21:13:03.140Z,22.37
2019-04-16T21:15:29.591Z,22.17
2019-04-16T21:17:55.802Z,22.37
2019-04-16T21:20:21.958Z,22.33
2019-04-16T21:22:48.161Z,21.93
2019-04-16T21:25:14.421Z,22.03
2019-04-16T21:27:45.396Z,21.93
2019-04-16T21:30:13.268Z,22.23
2019-04-16T21:32:53.862Z,21.30
2019-04-16T21:35:28.665Z,22.27
2019-04-16T21:38:14.250Z,21.03
2019-04-16T21:40:40.450Z,22.20
2019-04-16T21:43:08.215Z,21.57
2019-04-16T21:45:34.815Z,22.10
2019-04-16T21:48:01.194Z,21.63
2019-04-16T21:50:27.422Z,21.67
2019-04-16T21:52:55.719Z,22.33
2019-04-16T21:55:21.806Z,21.80
2019-04-16T21:57:48.020Z,20.73
2019-04-16T22:00:27.838Z,21.17
2019-04-16T22:02:56.360Z,20.83
2019-04-16T22:05:22.649Z,20.33
2019-04-16T22:07:48.930Z,22.17
2019-04-16T22:10:15.168Z,21.50
2019-04-16T22:12:41.523Z,22.17
2019-04-16T22:15:08.164Z,21.43
2019-04-16T22:17:35.774Z,22.47
2019-04-16T22:20:05.042Z,22.20
2019-04-16T22:22:31.404Z,22.17
2019-04-16T22:24:57.748Z,22.10
2019-04-16T22:27:24.017Z,20.83
2019-04-16T22:29:51.194Z,22.53
2019-04-16T22:32:17.272Z,21.50
2019-04-16T22:34:43.607Z,22.93
2019-04-16T22:37:09.779Z,22.10
2019-04-16T22:39:37.791Z,22.07
2019-04-16T22:42:06.339Z,22.83
2019-04-16T22:44:51.639Z,23.40
2019-04-16T22:47:31.226Z,22.73
2019-04-16T22:50:13.880Z,23.20
2019-04-16T22:52:25.698Z,23.83
2019-04-16T22:54:53.023Z,22.63
2019-04-16T22:57:19.534Z,23.47
2019-04-16T22:59:45.739Z,22.40
2019-04-16T23:02:16.748Z,22.83
2019-04-16T23:04:42.230Z,24.43
2019-04-16T23:07:08.853Z,24.47
2019-04-16T23:09:35.429Z,25.83
2019-04-16T23:12:01.682Z,24.80
2019-04-16T23:14:27.967Z,24.10
2019-04-16T23:16:54.060Z,23.03
2019-04-16T23:19:20.365Z,23.83
2019-04-16T23:21:47.374Z,22.27
2019-04-16T23:24:13.516Z,23.53
2019-04-16T23:26:39.647Z,23.80
2019-04-16T23:29:05.760Z,23.23
2019-04-16T23:31:32.833Z,22.73
2019-04-16T23:34:04.809Z,24.67
2019-04-16T23:36:27.198Z,24.67
2019-04-16T23:38:53.454Z,24.43
2019-04-16T23:41:19.668Z,24.90
2019-04-16T23:43:47.693Z,24.50
2019-04-16T23:46:18.640Z,23.53
2019-04-16T23:48:55.892Z,23.73
2019-04-16T23:51:28.772Z,23.93
2019-04-16T23:53:54.074Z,24.63
2019-04-16T23:56:24.788Z,24.63
2019-04-16T23:59:09.797Z,23.90
